createdAt,value
2023-03-29T00:03:19.152Z,3.05
2023-03-29T00:08:23.577Z,2.60
2023-03-29T00:13:26.294Z,2.08
2023-03-29T00:18:30.511Z,4.20
2023-03-29T00:23:35.567Z,3.03
2023-03-29T00:33:41.470Z,1.73
2023-03-29T00:38:45.715Z,1.00
2023-03-29T00:43:52.228Z,2.83
2023-03-29T00:48:56.605Z,2.30
2023-03-29T00:59:04.878Z,0.60
2023-03-29T01:04:18.262Z,0.95
2023-03-29T01:09:23.113Z,2.30
2023-03-29T01:14:30.924Z,3.00
2023-03-29T01:19:36.712Z,0.70
2023-03-29T01:24:45.174Z,2.55
2023-03-29T01:29:52.996Z,3.15
2023-03-29T01:35:10.111Z,1.50
2023-03-29T01:40:13.992Z,1.98
2023-03-29T01:45:21.336Z,1.67
2023-03-29T01:50:29.034Z,2.17
2023-03-29T01:55:33.280Z,2.53
2023-03-29T02:00:49.228Z,2.40
2023-03-29T02:05:53.433Z,2.30
2023-03-29T02:10:56.378Z,2.63
2023-03-29T02:16:03.142Z,3.07
2023-03-29T02:21:06.733Z,1.50
2023-03-29T02:26:09.645Z,4.18
2023-03-29T02:31:17.374Z,1.40
2023-03-29T02:36:22.493Z,1.55
2023-03-29T02:41:32.078Z,1.25
2023-03-29T02:46:38.010Z,1.07
2023-03-29T02:51:40.892Z,1.33
2023-03-29T02:56:44.909Z,0.38
2023-03-29T03:01:50.025Z,0.70
2023-03-29T03:06:54.586Z,2.42
2023-03-29T03:12:07.586Z,1.75
2023-03-29T03:17:12.283Z,1.92
2023-03-29T03:22:15.749Z,0.35
2023-03-29T03:27:18.699Z,0.80
2023-03-29T03:32:23.910Z,0.88
2023-03-29T03:37:28.010Z,0.30
2023-03-29T03:42:32.096Z,1.83
2023-03-29T03:47:37.248Z,2.15
2023-03-29T03:52:40.987Z,1.13
2023-03-29T03:57:54.382Z,1.65
2023-03-29T04:02:58.710Z,1.70
2023-03-29T04:08:01.767Z,1.23
2023-03-29T04:13:05.596Z,1.17
2023-03-29T04:18:10.370Z,2.00
2023-03-29T04:23:13.414Z,1.38
2023-03-29T04:28:16.699Z,1.75
2023-03-29T04:33:21.189Z,0.68
2023-03-29T04:38:24.501Z,1.35
2023-03-29T04:43:27.807Z,1.30
2023-03-29T04:48:33.389Z,0.13
2023-03-29T04:53:36.790Z,0.55
2023-03-29T04:58:39.354Z,1.37
2023-03-29T05:03:43.293Z,0.98
2023-03-29T05:08:46.170Z,1.90
2023-03-29T05:13:49.012Z,1.45
2023-03-29T05:18:52.980Z,2.50
2023-03-29T05:23:56.254Z,1.13
2023-03-29T05:28:58.740Z,3.47
2023-03-29T05:34:02.598Z,2.17
2023-03-29T05:39:06.373Z,0.57
2023-03-29T05:44:09.036Z,2.20
2023-03-29T05:49:13.210Z,1.50
2023-03-29T05:54:16.411Z,1.88
2023-03-29T05:59:20.104Z,0.35
2023-03-29T06:04:24.639Z,0.90
2023-03-29T06:09:27.358Z,0.85
2023-03-29T06:14:30.235Z,0.95
2023-03-29T06:19:34.140Z,1.92
2023-03-29T06:24:37.062Z,3.90
2023-03-29T06:29:39.650Z,3.20
2023-03-29T06:34:43.923Z,0.98
2023-03-29T06:39:53.386Z,0.93
2023-03-29T06:44:56.732Z,0.32
2023-03-29T06:50:00.767Z,2.67
2023-03-29T06:55:07.496Z,4.05
2023-03-29T07:00:18.180Z,1.60
2023-03-29T07:05:22.509Z,1.77
2023-03-29T07:10:28.145Z,1.50
2023-03-29T07:15:30.687Z,0.47
2023-03-29T07:20:34.900Z,0.20
2023-03-29T07:25:38.410Z,1.67
2023-03-29T07:30:41.402Z,1.97
2023-03-29T07:35:47.942Z,0.68
2023-03-29T07:40:50.966Z,3.30
2023-03-29T07:45:54.403Z,4.25
2023-03-29T07:50:58.495Z,2.10
2023-03-29T07:56:01.858Z,2.33
2023-03-29T08:01:04.677Z,2.30
2023-03-29T08:06:09.888Z,2.17
2023-03-29T08:11:14.107Z,3.03
2023-03-29T08:16:17.321Z,1.13
2023-03-29T08:21:21.567Z,0.73
2023-03-29T08:26:25.000Z,2.10
2023-03-29T08:31:28.455Z,1.77
2023-03-29T08:36:32.684Z,2.58
2023-03-29T08:41:39.742Z,3.97
2023-03-29T08:46:45.985Z,1.58
2023-03-29T08:51:53.362Z,1.05
2023-03-29T08:56:59.325Z,3.95
2023-03-29T09:02:03.322Z,2.97
2023-03-29T09:07:09.612Z,2.70
2023-03-29T09:12:27.317Z,2.00
2023-03-29T09:17:36.055Z,1.33
2023-03-29T09:22:44.574Z,1.05
2023-03-29T09:27:49.604Z,1.48
2023-03-29T09:32:54.080Z,3.30
2023-03-29T09:37:59.951Z,5.13
2023-03-29T09:43:05.582Z,1.38
2023-03-29T09:48:12.582Z,2.53
2023-03-29T09:53:18.971Z,1.50
2023-03-29T09:58:24.491Z,4.55
2023-03-29T10:03:29.131Z,2.10
2023-03-29T10:08:37.851Z,1.35
2023-03-29T10:13:44.893Z,0.95
2023-03-29T10:18:49.975Z,1.65
2023-03-29T10:23:59.586Z,1.40
2023-03-29T10:29:03.865Z,2.50
2023-03-29T10:34:08.437Z,1.85
2023-03-29T10:39:15.553Z,3.97
2023-03-29T10:44:26.484Z,4.43
2023-03-29T10:49:29.317Z,1.35
2023-03-29T10:54:33.606Z,1.00
2023-03-29T10:59:41.313Z,1.10
2023-03-29T11:04:47.087Z,1.80
2023-03-29T11:09:56.270Z,2.08
2023-03-29T11:15:04.877Z,1.70
2023-03-29T11:20:17.432Z,1.95
2023-03-29T11:25:37.209Z,1.55
2023-03-29T11:35:49.747Z,3.63
2023-03-29T11:41:06.163Z,1.40
2023-03-29T11:46:11.152Z,2.08
2023-03-29T11:51:15.573Z,1.45
2023-03-29T11:56:23.485Z,8.57
2023-03-29T12:01:31.848Z,2.00
2023-03-29T12:06:38.353Z,4.28
2023-03-29T12:11:49.898Z,2.38
2023-03-29T12:16:54.385Z,1.77
2023-03-29T12:21:57.946Z,3.25
2023-03-29T12:27:12.970Z,1.65
2023-03-29T12:32:23.052Z,0.88
2023-03-29T12:37:42.404Z,1.70
2023-03-29T12:42:47.299Z,1.55
2023-03-29T12:47:52.015Z,4.22
2023-03-29T12:52:54.867Z,1.73
2023-03-29T12:58:06.076Z,4.80
2023-03-29T13:03:21.451Z,5.05
2023-03-29T13:08:27.456Z,5.95
2023-03-29T13:13:34.153Z,5.45
2023-03-29T13:18:42.426Z,5.57
2023-03-29T13:23:52.621Z,3.35
2023-03-29T13:29:06.323Z,3.78
2023-03-29T13:34:15.077Z,4.80
2023-03-29T13:59:33.082Z,1.98
2023-03-29T14:04:38.749Z,3.65
2023-03-29T14:14:58.115Z,2.47
2023-03-29T14:20:02.264Z,0.77
2023-03-29T14:25:07.486Z,2.85
2023-03-29T14:30:24.104Z,2.15
2023-03-29T14:35:33.115Z,2.22
2023-03-29T14:45:50.137Z,2.33
2023-03-29T14:50:53.813Z,5.78
2023-03-29T14:56:00.966Z,2.22
2023-03-29T15:01:07.872Z,6.03
2023-03-29T15:06:11.263Z,3.67
2023-03-29T15:11:15.539Z,3.92
2023-03-29T15:16:22.292Z,2.25
2023-03-29T15:21:28.188Z,7.95
2023-03-29T15:26:32.496Z,4.82
2023-03-29T15:31:37.281Z,5.97
2023-03-29T15:36:42.216Z,6.22
2023-03-29T15:41:46.549Z,3.78
2023-03-29T15:46:51.288Z,2.42
2023-03-29T15:51:55.216Z,2.15
2023-03-29T15:57:01.097Z,1.77
2023-03-29T16:02:05.558Z,2.40
2023-03-29T16:07:12.049Z,3.63
2023-03-29T16:12:16.066Z,1.95
2023-03-29T16:17:20.830Z,1.85
2023-03-29T16:22:24.188Z,1.92
2023-03-29T16:27:26.809Z,2.47
2023-03-29T16:32:41.188Z,3.75
2023-03-29T16:37:44.954Z,2.25
2023-03-29T16:42:48.407Z,3.28
2023-03-29T16:47:54.456Z,1.83
2023-03-29T16:52:57.838Z,5.85
2023-03-29T16:58:00.358Z,1.55
2023-03-29T17:03:05.461Z,2.47
2023-03-29T17:08:09.754Z,5.55
2023-03-29T17:13:12.981Z,1.27
2023-03-29T17:18:17.866Z,3.20
2023-03-29T17:23:21.322Z,10.07
2023-03-29T17:28:24.746Z,9.93
2023-03-29T17:33:29.516Z,5.20
2023-03-29T17:38:34.078Z,3.85
2023-03-29T17:43:37.865Z,8.77
2023-03-29T17:48:41.916Z,4.97
2023-03-29T17:53:44.525Z,7.65
2023-03-29T17:58:49.014Z,6.10
2023-03-29T18:03:57.201Z,6.75
2023-03-29T18:09:01.661Z,9.15
2023-03-29T18:14:05.527Z,21.48
2023-03-29T18:19:10.770Z,14.35
2023-03-29T18:24:13.911Z,15.07
2023-03-29T18:29:17.159Z,13.30
2023-03-29T18:34:21.706Z,11.85
2023-03-29T18:39:25.342Z,15.60
2023-03-29T18:44:28.729Z,16.92
2023-03-29T18:49:34.048Z,14.57
2023-03-29T18:54:36.892Z,19.45
2023-03-29T18:59:39.506Z,21.58
2023-03-29T19:04:44.614Z,16.88
2023-03-29T19:09:47.235Z,37.67
2023-03-29T19:14:50.302Z,14.93
2023-03-29T19:19:54.395Z,26.75
2023-03-29T19:25:07.650Z,4.60
2023-03-29T19:30:12.155Z,18.80
2023-03-29T19:35:22.049Z,8.45
2023-03-29T19:40:34.727Z,7.78
2023-03-29T19:45:40.295Z,10.27
2023-03-29T19:50:47.325Z,6.50
2023-03-29T19:55:50.734Z,6.25
2023-03-29T20:00:53.694Z,8.93
2023-03-29T20:05:58.115Z,6.25
2023-03-29T20:11:03.528Z,5.22
2023-03-29T20:16:08.464Z,9.00
2023-03-29T20:21:18.392Z,6.50
2023-03-29T20:26:22.826Z,4.03
2023-03-29T20:31:26.007Z,7.17
2023-03-29T20:36:32.012Z,7.22
2023-03-29T20:41:38.273Z,5.82
2023-03-29T20:47:02.190Z,7.60
2023-03-29T20:52:08.382Z,7.15
2023-03-29T20:57:14.091Z,7.40
2023-03-29T21:02:19.059Z,6.75
2023-03-29T21:07:23.174Z,12.82
2023-03-29T21:12:26.279Z,3.78
2023-03-29T21:17:28.940Z,2.78
2023-03-29T21:22:34.933Z,2.88
2023-03-29T21:27:37.831Z,4.00
2023-03-29T21:32:40.496Z,7.43
2023-03-29T21:37:44.812Z,7.55
2023-03-29T21:42:48.182Z,2.63
2023-03-29T21:47:51.294Z,6.55
2023-03-29T21:52:55.723Z,6.00
2023-03-29T21:58:08.456Z,3.25
2023-03-29T22:03:11.770Z,7.03
2023-03-29T22:08:26.337Z,8.65
2023-03-29T22:13:29.621Z,3.88
2023-03-29T22:18:42.438Z,3.80
2023-03-29T22:23:47.564Z,11.13
2023-03-29T22:28:50.672Z,3.42
2023-03-29T22:33:53.759Z,3.87
2023-03-29T22:38:58.356Z,8.40
2023-03-29T22:44:02.031Z,5.22
2023-03-29T22:49:06.082Z,7.32
2023-03-29T22:54:10.305Z,7.38
2023-03-29T23:04:15.867Z,3.92
2023-03-29T23:09:20.524Z,0.90
2023-03-29T23:14:24.022Z,9.30
2023-03-29T23:19:27.003Z,10.95
2023-03-29T23:24:31.670Z,2.25
2023-03-29T23:29:37.962Z,4.03
2023-03-29T23:34:40.967Z,4.95
2023-03-29T23:39:45.835Z,3.47
2023-03-29T23:49:53.265Z,2.05
2023-03-29T23:54:57.912Z,6.88
